sensor_id;sensor_type;location;lat;lon;timestamp;temperature;humidity
3942;DHT22;1985;48.592;8.850;2023-03-01T00:02:06;0.50;91.70
3942;DHT22;1985;48.592;8.850;2023-03-01T00:04:32;0.40;91.90
3942;DHT22;1985;48.592;8.850;2023-03-01T00:06:58;0.40;92.10
3942;DHT22;1985;48.592;8.850;2023-03-01T00:09:23;0.40;92.20
3942;DHT22;1985;48.592;8.850;2023-03-01T00:11:49;0.40;92.30
3942;DHT22;1985;48.592;8.850;2023-03-01T00:14:15;0.50;92.30
3942;DHT22;1985;48.592;8.850;2023-03-01T00:16:44;0.50;91.90
3942;DHT22;1985;48.592;8.850;2023-03-01T00:19:16;0.60;91.50
3942;DHT22;1985;48.592;8.850;2023-03-01T00:21:42;0.70;91.60
3942;DHT22;1985;48.592;8.850;2023-03-01T00:24:09;0.60;91.20
3942;DHT22;1985;48.592;8.850;2023-03-01T00:26:35;0.50;91.10
3942;DHT22;1985;48.592;8.850;2023-03-01T00:29:00;0.50;91.30
3942;DHT22;1985;48.592;8.850;2023-03-01T00:31:30;0.40;91.30
3942;DHT22;1985;48.592;8.850;2023-03-01T00:33:59;0.30;91.50
3942;DHT22;1985;48.592;8.850;2023-03-01T00:36:27;0.20;91.70
3942;DHT22;1985;48.592;8.850;2023-03-01T00:38:53;0.20;92.00
3942;DHT22;1985;48.592;8.850;2023-03-01T00:41:20;0.20;91.80
3942;DHT22;1985;48.592;8.850;2023-03-01T00:43:45;0.10;91.90
3942;DHT22;1985;48.592;8.850;2023-03-01T00:46:14;0.00;92.00
3942;DHT22;1985;48.592;8.850;2023-03-01T00:48:40;-0.10;92.00
3942;DHT22;1985;48.592;8.850;2023-03-01T00:51:07;-0.10;92.30
3942;DHT22;1985;48.592;8.850;2023-03-01T00:53:34;-0.20;92.40
3942;DHT22;1985;48.592;8.850;2023-03-01T00:56:00;-0.40;92.50
3942;DHT22;1985;48.592;8.850;2023-03-01T00:58:26;-0.60;93.20
3942;DHT22;1985;48.592;8.850;2023-03-01T01:00:52;-0.50;93.60
3942;DHT22;1985;48.592;8.850;2023-03-01T01:03:18;-0.40;93.60
3942;DHT22;1985;48.592;8.850;2023-03-01T01:05:44;-0.30;93.40
3942;DHT22;1985;48.592;8.850;2023-03-01T01:08:10;-0.30;93.40
3942;DHT22;1985;48.592;8.850;2023-03-01T01:10:36;-0.20;93.60
3942;DHT22;1985;48.592;8.850;2023-03-01T01:13:02;-0.20;93.60
3942;DHT22;1985;48.592;8.850;2023-03-01T01:15:27;-0.10;93.40
3942;DHT22;1985;48.592;8.850;2023-03-01T01:17:53;-0.10;93.20
3942;DHT22;1985;48.592;8.850;2023-03-01T01:20:20;-0.10;93.20
3942;DHT22;1985;48.592;8.850;2023-03-01T01:22:46;-0.10;93.20
3942;DHT22;1985;48.592;8.850;2023-03-01T01:25:11;0.00;93.30
3942;DHT22;1985;48.592;8.850;2023-03-01T01:27:37;0.00;93.20
3942;DHT22;1985;48.592;8.850;2023-03-01T01:30:03;0.00;93.70
3942;DHT22;1985;48.592;8.850;2023-03-01T01:32:29;-0.10;93.70
3942;DHT22;1985;48.592;8.850;2023-03-01T01:34:55;-0.10;93.60
3942;DHT22;1985;48.592;8.850;2023-03-01T01:37:21;-0.20;94.00
3942;DHT22;1985;48.592;8.850;2023-03-01T01:39:46;-0.30;94.50
3942;DHT22;1985;48.592;8.850;2023-03-01T01:42:17;-0.40;94.50
3942;DHT22;1985;48.592;8.850;2023-03-01T01:44:47;-0.40;94.90
3942;DHT22;1985;48.592;8.850;2023-03-01T01:47:18;-0.30;95.20
3942;DHT22;1985;48.592;8.850;2023-03-01T01:49:56;-0.40;95.30
3942;DHT22;1985;48.592;8.850;2023-03-01T01:52:29;-0.30;95.20
3942;DHT22;1985;48.592;8.850;2023-03-01T01:55:23;-0.40;95.40
3942;DHT22;1985;48.592;8.850;2023-03-01T01:57:53;-0.50;95.80
3942;DHT22;1985;48.592;8.850;2023-03-01T02:00:26;-0.60;95.80
3942;DHT22;1985;48.592;8.850;2023-03-01T02:02:56;-0.60;96.20
3942;DHT22;1985;48.592;8.850;2023-03-01T02:05:41;-0.50;96.30
3942;DHT22;1985;48.592;8.850;2023-03-01T02:08:11;-0.60;96.50
3942;DHT22;1985;48.592;8.850;2023-03-01T02:10:39;-0.50;96.80
3942;DHT22;1985;48.592;8.850;2023-03-01T02:13:06;-0.60;96.60
3942;DHT22;1985;48.592;8.850;2023-03-01T02:15:34;-0.50;96.80
3942;DHT22;1985;48.592;8.850;2023-03-01T02:18:01;-0.50;97.00
3942;DHT22;1985;48.592;8.850;2023-03-01T02:20:33;-0.50;97.10
3942;DHT22;1985;48.592;8.850;2023-03-01T02:23:00;-0.60;97.20
3942;DHT22;1985;48.592;8.850;2023-03-01T02:30:21;-0.60;98.00
3942;DHT22;1985;48.592;8.850;2023-03-01T02:32:48;-0.50;98.10
3942;DHT22;1985;48.592;8.850;2023-03-01T02:35:16;-0.50;97.80
3942;DHT22;1985;48.592;8.850;2023-03-01T02:37:44;-0.50;98.20
3942;DHT22;1985;48.592;8.850;2023-03-01T02:40:17;-0.40;98.40
3942;DHT22;1985;48.592;8.850;2023-03-01T02:42:51;-0.30;98.30
3942;DHT22;1985;48.592;8.850;2023-03-01T02:45:17;-0.30;98.10
3942;DHT22;1985;48.592;8.850;2023-03-01T02:47:43;-0.20;98.40
3942;DHT22;1985;48.592;8.850;2023-03-01T02:50:57;-0.10;98.00
3942;DHT22;1985;48.592;8.850;2023-03-01T02:56:04;-0.20;98.20
3942;DHT22;1985;48.592;8.850;2023-03-01T02:58:29;-0.10;98.40
3942;DHT22;1985;48.592;8.850;2023-03-01T03:00:55;-0.10;98.70
3942;DHT22;1985;48.592;8.850;2023-03-01T03:03:21;-0.10;98.50
3942;DHT22;1985;48.592;8.850;2023-03-01T03:05:47;-0.10;98.70
3942;DHT22;1985;48.592;8.850;2023-03-01T03:08:13;-0.10;98.80
3942;DHT22;1985;48.592;8.850;2023-03-01T03:10:41;0.00;98.80
3942;DHT22;1985;48.592;8.850;2023-03-01T03:13:17;-0.10;98.70
3942;DHT22;1985;48.592;8.850;2023-03-01T03:15:44;0.00;98.90
3942;DHT22;1985;48.592;8.850;2023-03-01T03:18:13;0.20;98.40
3942;DHT22;1985;48.592;8.850;2023-03-01T03:20:41;0.10;98.30
3942;DHT22;1985;48.592;8.850;2023-03-01T03:23:07;-0.10;98.80
3942;DHT22;1985;48.592;8.850;2023-03-01T03:25:32;-0.10;99.00
3942;DHT22;1985;48.592;8.850;2023-03-01T03:28:04;0.10;98.90
3942;DHT22;1985;48.592;8.850;2023-03-01T03:30:36;0.10;98.70
3942;DHT22;1985;48.592;8.850;2023-03-01T03:33:02;0.20;98.60
3942;DHT22;1985;48.592;8.850;2023-03-01T03:35:30;0.10;98.40
3942;DHT22;1985;48.592;8.850;2023-03-01T03:37:57;-0.10;99.00
3942;DHT22;1985;48.592;8.850;2023-03-01T03:40:41;-0.10;99.40
3942;DHT22;1985;48.592;8.850;2023-03-01T03:43:10;0.00;99.30
3942;DHT22;1985;48.592;8.850;2023-03-01T03:45:36;0.20;99.00
3942;DHT22;1985;48.592;8.850;2023-03-01T03:48:04;0.40;98.40
3942;DHT22;1985;48.592;8.850;2023-03-01T03:50:30;0.40;98.40
3942;DHT22;1985;48.592;8.850;2023-03-01T03:52:56;0.50;97.90
3942;DHT22;1985;48.592;8.850;2023-03-01T03:55:22;0.60;97.70
3942;DHT22;1985;48.592;8.850;2023-03-01T03:57:48;0.70;97.50
3942;DHT22;1985;48.592;8.850;2023-03-01T04:00:21;0.80;97.10
3942;DHT22;1985;48.592;8.850;2023-03-01T04:02:49;0.80;96.80
3942;DHT22;1985;48.592;8.850;2023-03-01T04:05:17;0.80;96.80
3942;DHT22;1985;48.592;8.850;2023-03-01T04:07:45;0.90;96.70
3942;DHT22;1985;48.592;8.850;2023-03-01T04:10:16;1.00;96.50
3942;DHT22;1985;48.592;8.850;2023-03-01T04:12:42;1.00;96.20
3942;DHT22;1985;48.592;8.850;2023-03-01T04:15:09;1.00;96.00
3942;DHT22;1985;48.592;8.850;2023-03-01T04:17:47;0.90;96.30
3942;DHT22;1985;48.592;8.850;2023-03-01T04:20:16;0.90;96.10
3942;DHT22;1985;48.592;8.850;2023-03-01T04:23:10;0.80;96.30
3942;DHT22;1985;48.592;8.850;2023-03-01T04:28:53;0.60;97.00
3942;DHT22;1985;48.592;8.850;2023-03-01T04:31:15;0.60;97.30
3942;DHT22;1985;48.592;8.850;2023-03-01T04:33:43;0.60;97.40
3942;DHT22;1985;48.592;8.850;2023-03-01T04:36:12;0.60;97.60
3942;DHT22;1985;48.592;8.850;2023-03-01T04:38:38;0.50;97.50
3942;DHT22;1985;48.592;8.850;2023-03-01T04:41:06;0.40;97.70
3942;DHT22;1985;48.592;8.850;2023-03-01T04:43:32;0.40;98.00
3942;DHT22;1985;48.592;8.850;2023-03-01T04:46:11;0.30;98.30
3942;DHT22;1985;48.592;8.850;2023-03-01T04:48:38;0.30;98.70
3942;DHT22;1985;48.592;8.850;2023-03-01T04:51:05;0.40;98.50
3942;DHT22;1985;48.592;8.850;2023-03-01T04:53:31;0.40;98.50
3942;DHT22;1985;48.592;8.850;2023-03-01T04:55:58;0.30;98.60
3942;DHT22;1985;48.592;8.850;2023-03-01T04:58:25;0.40;98.80
3942;DHT22;1985;48.592;8.850;2023-03-01T05:00:52;0.30;98.70
3942;DHT22;1985;48.592;8.850;2023-03-01T05:03:18;0.40;98.90
3942;DHT22;1985;48.592;8.850;2023-03-01T05:05:45;0.50;98.70
3942;DHT22;1985;48.592;8.850;2023-03-01T05:08:12;0.50;98.60
3942;DHT22;1985;48.592;8.850;2023-03-01T05:10:44;0.60;98.50
3942;DHT22;1985;48.592;8.850;2023-03-01T05:13:11;0.50;98.70
3942;DHT22;1985;48.592;8.850;2023-03-01T05:15:39;0.60;98.70
3942;DHT22;1985;48.592;8.850;2023-03-01T05:18:05;0.50;98.70
3942;DHT22;1985;48.592;8.850;2023-03-01T05:20:36;0.50;98.70
3942;DHT22;1985;48.592;8.850;2023-03-01T05:23:03;0.50;98.60
3942;DHT22;1985;48.592;8.850;2023-03-01T05:25:31;0.60;98.90
3942;DHT22;1985;48.592;8.850;2023-03-01T05:27:59;0.60;98.60
3942;DHT22;1985;48.592;8.850;2023-03-01T05:30:30;0.70;98.50
3942;DHT22;1985;48.592;8.850;2023-03-01T05:32:56;0.60;98.40
3942;DHT22;1985;48.592;8.850;2023-03-01T05:35:21;0.60;98.70
3942;DHT22;1985;48.592;8.850;2023-03-01T05:37:48;0.60;98.60
3942;DHT22;1985;48.592;8.850;2023-03-01T05:40:17;0.60;98.80
3942;DHT22;1985;48.592;8.850;2023-03-01T05:42:56;0.70;98.80
3942;DHT22;1985;48.592;8.850;2023-03-01T05:45:24;0.70;98.60
3942;DHT22;1985;48.592;8.850;2023-03-01T05:47:50;0.60;98.90
3942;DHT22;1985;48.592;8.850;2023-03-01T05:50:21;0.70;98.80
3942;DHT22;1985;48.592;8.850;2023-03-01T05:52:49;0.70;99.10
3942;DHT22;1985;48.592;8.850;2023-03-01T05:55:17;0.80;98.70
3942;DHT22;1985;48.592;8.850;2023-03-01T05:57:43;0.90;98.40
3942;DHT22;1985;48.592;8.850;2023-03-01T06:00:10;1.00;98.20
3942;DHT22;1985;48.592;8.850;2023-03-01T06:02:36;1.00;98.10
3942;DHT22;1985;48.592;8.850;2023-03-01T06:05:01;1.00;98.10
3942;DHT22;1985;48.592;8.850;2023-03-01T06:07:27;0.90;98.60
3942;DHT22;1985;48.592;8.850;2023-03-01T06:09:53;0.80;98.70
3942;DHT22;1985;48.592;8.850;2023-03-01T06:12:19;0.80;99.00
3942;DHT22;1985;48.592;8.850;2023-03-01T06:14:45;0.70;99.00
3942;DHT22;1985;48.592;8.850;2023-03-01T06:17:12;0.80;99.20
3942;DHT22;1985;48.592;8.850;2023-03-01T06:19:37;0.80;99.20
3942;DHT22;1985;48.592;8.850;2023-03-01T06:22:03;0.70;99.20
3942;DHT22;1985;48.592;8.850;2023-03-01T06:24:28;0.80;99.40
3942;DHT22;1985;48.592;8.850;2023-03-01T06:26:54;0.80;99.20
3942;DHT22;1985;48.592;8.850;2023-03-01T06:29:21;0.90;99.40
3942;DHT22;1985;48.592;8.850;2023-03-01T06:31:48;0.90;99.10
3942;DHT22;1985;48.592;8.850;2023-03-01T06:34:14;0.90;99.30
3942;DHT22;1985;48.592;8.850;2023-03-01T06:36:40;0.90;99.40
3942;DHT22;1985;48.592;8.850;2023-03-01T06:39:06;0.90;99.30
3942;DHT22;1985;48.592;8.850;2023-03-01T06:41:32;0.90;99.20
3942;DHT22;1985;48.592;8.850;2023-03-01T06:43:59;1.10;99.10
3942;DHT22;1985;48.592;8.850;2023-03-01T06:46:25;1.20;98.90
3942;DHT22;1985;48.592;8.850;2023-03-01T06:48:50;1.30;98.60
3942;DHT22;1985;48.592;8.850;2023-03-01T06:51:16;1.20;98.40
3942;DHT22;1985;48.592;8.850;2023-03-01T06:53:42;1.20;98.70
3942;DHT22;1985;48.592;8.850;2023-03-01T06:56:07;1.40;98.70
3942;DHT22;1985;48.592;8.850;2023-03-01T06:58:33;1.30;98.40
3942;DHT22;1985;48.592;8.850;2023-03-01T07:00:59;1.40;98.60
3942;DHT22;1985;48.592;8.850;2023-03-01T07:03:24;1.50;98.50
3942;DHT22;1985;48.592;8.850;2023-03-01T07:05:50;1.60;98.40
3942;DHT22;1985;48.592;8.850;2023-03-01T07:08:19;1.60;98.20
3942;DHT22;1985;48.592;8.850;2023-03-01T07:10:45;1.70;97.80
3942;DHT22;1985;48.592;8.850;2023-03-01T07:13:11;1.80;97.60
3942;DHT22;1985;48.592;8.850;2023-03-01T07:15:36;1.70;97.50
3942;DHT22;1985;48.592;8.850;2023-03-01T07:18:02;1.70;97.50
3942;DHT22;1985;48.592;8.850;2023-03-01T07:20:27;1.60;97.60
3942;DHT22;1985;48.592;8.850;2023-03-01T07:22:54;1.70;97.40
3942;DHT22;1985;48.592;8.850;2023-03-01T07:25:20;1.70;97.50
3942;DHT22;1985;48.592;8.850;2023-03-01T07:27:53;1.80;97.20
3942;DHT22;1985;48.592;8.850;2023-03-01T07:30:20;1.60;97.10
3942;DHT22;1985;48.592;8.850;2023-03-01T07:32:46;1.40;97.40
3942;DHT22;1985;48.592;8.850;2023-03-01T07:35:12;1.40;97.90
3942;DHT22;1985;48.592;8.850;2023-03-01T07:37:38;1.50;97.80
3942;DHT22;1985;48.592;8.850;2023-03-01T07:40:04;1.60;97.50
3942;DHT22;1985;48.592;8.850;2023-03-01T07:42:30;1.50;97.50
3942;DHT22;1985;48.592;8.850;2023-03-01T07:44:55;1.50;97.60
3942;DHT22;1985;48.592;8.850;2023-03-01T07:47:21;1.60;97.80
3942;DHT22;1985;48.592;8.850;2023-03-01T07:49:46;1.80;97.30
3942;DHT22;1985;48.592;8.850;2023-03-01T07:52:12;1.60;97.20
3942;DHT22;1985;48.592;8.850;2023-03-01T07:54:38;1.70;97.70
3942;DHT22;1985;48.592;8.850;2023-03-01T07:57:04;1.80;97.50
3942;DHT22;1985;48.592;8.850;2023-03-01T07:59:29;1.90;97.40
3942;DHT22;1985;48.592;8.850;2023-03-01T08:01:56;1.90;97.00
3942;DHT22;1985;48.592;8.850;2023-03-01T08:04:22;2.10;96.90
3942;DHT22;1985;48.592;8.850;2023-03-01T08:06:50;2.00;96.70
3942;DHT22;1985;48.592;8.850;2023-03-01T08:09:16;2.10;96.90
3942;DHT22;1985;48.592;8.850;2023-03-01T08:11:42;2.30;96.60
3942;DHT22;1985;48.592;8.850;2023-03-01T08:14:08;2.40;96.20
3942;DHT22;1985;48.592;8.850;2023-03-01T08:16:33;2.60;95.90
3942;DHT22;1985;48.592;8.850;2023-03-01T08:19:11;2.80;95.30
3942;DHT22;1985;48.592;8.850;2023-03-01T08:21:38;3.10;95.10
3942;DHT22;1985;48.592;8.850;2023-03-01T08:24:05;3.20;94.40
3942;DHT22;1985;48.592;8.850;2023-03-01T08:26:31;3.20;94.30
3942;DHT22;1985;48.592;8.850;2023-03-01T08:28:57;3.30;94.20
3942;DHT22;1985;48.592;8.850;2023-03-01T08:31:25;3.40;94.00
3942;DHT22;1985;48.592;8.850;2023-03-01T08:33:53;3.50;93.70
3942;DHT22;1985;48.592;8.850;2023-03-01T08:36:30;3.40;93.40
3942;DHT22;1985;48.592;8.850;2023-03-01T08:38:56;3.50;93.60
3942;DHT22;1985;48.592;8.850;2023-03-01T08:41:22;3.50;93.50
3942;DHT22;1985;48.592;8.850;2023-03-01T08:43:48;3.60;93.20
3942;DHT22;1985;48.592;8.850;2023-03-01T08:46:14;3.60;92.90
3942;DHT22;1985;48.592;8.850;2023-03-01T08:48:39;3.60;92.80
3942;DHT22;1985;48.592;8.850;2023-03-01T08:51:10;3.60;92.80
3942;DHT22;1985;48.592;8.850;2023-03-01T08:53:36;3.90;92.60
3942;DHT22;1985;48.592;8.850;2023-03-01T08:56:05;4.20;92.30
3942;DHT22;1985;48.592;8.850;2023-03-01T08:58:30;4.30;91.90
3942;DHT22;1985;48.592;8.850;2023-03-01T09:00:56;4.40;91.60
3942;DHT22;1985;48.592;8.850;2023-03-01T09:03:23;4.70;91.40
3942;DHT22;1985;48.592;8.850;2023-03-01T09:05:49;4.80;90.80
3942;DHT22;1985;48.592;8.850;2023-03-01T09:08:18;4.60;89.70
3942;DHT22;1985;48.592;8.850;2023-03-01T09:10:44;4.40;88.90
3942;DHT22;1985;48.592;8.850;2023-03-01T09:13:10;4.40;89.80
3942;DHT22;1985;48.592;8.850;2023-03-01T09:15:39;4.70;88.90
3942;DHT22;1985;48.592;8.850;2023-03-01T09:18:05;4.60;87.80
3942;DHT22;1985;48.592;8.850;2023-03-01T09:20:31;4.80;87.00
3942;DHT22;1985;48.592;8.850;2023-03-01T09:22:58;4.90;86.30
3942;DHT22;1985;48.592;8.850;2023-03-01T09:25:24;5.10;85.10
3942;DHT22;1985;48.592;8.850;2023-03-01T09:27:53;5.10;85.90
3942;DHT22;1985;48.592;8.850;2023-03-01T09:30:19;5.10;84.40
3942;DHT22;1985;48.592;8.850;2023-03-01T09:32:44;5.00;85.10
3942;DHT22;1985;48.592;8.850;2023-03-01T09:35:11;5.00;84.60
3942;DHT22;1985;48.592;8.850;2023-03-01T09:37:37;5.30;84.70
3942;DHT22;1985;48.592;8.850;2023-03-01T09:40:05;5.90;84.30
3942;DHT22;1985;48.592;8.850;2023-03-01T09:42:34;6.10;80.40
3942;DHT22;1985;48.592;8.850;2023-03-01T09:47:58;6.20;79.90
3942;DHT22;1985;48.592;8.850;2023-03-01T09:50:34;6.20;80.00
3942;DHT22;1985;48.592;8.850;2023-03-01T09:53:08;6.50;79.30
3942;DHT22;1985;48.592;8.850;2023-03-01T09:55:55;6.80;78.70
3942;DHT22;1985;48.592;8.850;2023-03-01T10:01:28;6.70;77.00
3942;DHT22;1985;48.592;8.850;2023-03-01T10:06:41;6.40;77.90
3942;DHT22;1985;48.592;8.850;2023-03-01T10:09:14;6.80;77.70
3942;DHT22;1985;48.592;8.850;2023-03-01T10:11:52;7.10;77.10
3942;DHT22;1985;48.592;8.850;2023-03-01T10:17:16;7.80;74.70
3942;DHT22;1985;48.592;8.850;2023-03-01T10:19:44;7.70;73.50
3942;DHT22;1985;48.592;8.850;2023-03-01T10:22:20;7.80;73.00
3942;DHT22;1985;48.592;8.850;2023-03-01T10:24:50;7.60;72.20
3942;DHT22;1985;48.592;8.850;2023-03-01T10:27:23;7.80;72.60
3942;DHT22;1985;48.592;8.850;2023-03-01T10:30:21;8.20;71.70
3942;DHT22;1985;48.592;8.850;2023-03-01T10:32:46;8.80;70.30
3942;DHT22;1985;48.592;8.850;2023-03-01T10:35:25;11.90;65.40
3942;DHT22;1985;48.592;8.850;2023-03-01T10:38:11;14.40;58.90
3942;DHT22;1985;48.592;8.850;2023-03-01T10:40:54;16.50;51.60
3942;DHT22;1985;48.592;8.850;2023-03-01T10:43:20;18.50;47.70
3942;DHT22;1985;48.592;8.850;2023-03-01T10:45:47;20.30;42.80
3942;DHT22;1985;48.592;8.850;2023-03-01T10:50:50;23.80;37.50
3942;DHT22;1985;48.592;8.850;2023-03-01T10:56:05;25.70;33.00
3942;DHT22;1985;48.592;8.850;2023-03-01T10:58:33;26.00;31.80
3942;DHT22;1985;48.592;8.850;2023-03-01T11:01:01;26.30;30.30
3942;DHT22;1985;48.592;8.850;2023-03-01T11:03:33;26.80;29.20
3942;DHT22;1985;48.592;8.850;2023-03-01T11:08:45;26.20;28.70
3942;DHT22;1985;48.592;8.850;2023-03-01T11:11:33;23.80;29.50
3942;DHT22;1985;48.592;8.850;2023-03-01T11:14:20;23.30;29.80
3942;DHT22;1985;48.592;8.850;2023-03-01T11:16:57;22.30;30.70
3942;DHT22;1985;48.592;8.850;2023-03-01T11:19:24;22.60;31.50
3942;DHT22;1985;48.592;8.850;2023-03-01T11:24:30;23.10;31.00
3942;DHT22;1985;48.592;8.850;2023-03-01T11:27:01;23.90;30.10
3942;DHT22;1985;48.592;8.850;2023-03-01T11:29:55;23.60;30.20
3942;DHT22;1985;48.592;8.850;2023-03-01T11:32:24;24.10;30.50
3942;DHT22;1985;48.592;8.850;2023-03-01T11:37:26;23.20;30.80
3942;DHT22;1985;48.592;8.850;2023-03-01T11:40:15;23.10;30.80
3942;DHT22;1985;48.592;8.850;2023-03-01T11:45:24;22.70;30.20
3942;DHT22;1985;48.592;8.850;2023-03-01T11:50:44;21.20;31.10
3942;DHT22;1985;48.592;8.850;2023-03-01T11:56:07;21.20;32.10
3942;DHT22;1985;48.592;8.850;2023-03-01T11:58:58;21.00;32.00
3942;DHT22;1985;48.592;8.850;2023-03-01T12:07:46;22.90;31.60
3942;DHT22;1985;48.592;8.850;2023-03-01T12:15:55;25.10;30.00
3942;DHT22;1985;48.592;8.850;2023-03-01T12:23:48;24.00;29.80
3942;DHT22;1985;48.592;8.850;2023-03-01T12:26:31;23.10;29.80
3942;DHT22;1985;48.592;8.850;2023-03-01T12:29:34;21.10;30.70
3942;DHT22;1985;48.592;8.850;2023-03-01T12:42:30;19.30;34.00
3942;DHT22;1985;48.592;8.850;2023-03-01T12:50:46;22.70;31.70
3942;DHT22;1985;48.592;8.850;2023-03-01T12:53:39;23.50;30.90
3942;DHT22;1985;48.592;8.850;2023-03-01T12:56:09;22.80;31.90
3942;DHT22;1985;48.592;8.850;2023-03-01T13:01:52;26.10;29.70
3942;DHT22;1985;48.592;8.850;2023-03-01T13:07:36;26.80;28.30
3942;DHT22;1985;48.592;8.850;2023-03-01T13:10:29;26.20;28.60
3942;DHT22;1985;48.592;8.850;2023-03-01T13:20:20;23.60;30.70
3942;DHT22;1985;48.592;8.850;2023-03-01T13:22:47;24.80;29.80
3942;DHT22;1985;48.592;8.850;2023-03-01T13:25:18;24.30;29.80
3942;DHT22;1985;48.592;8.850;2023-03-01T13:27:46;21.80;29.90
3942;DHT22;1985;48.592;8.850;2023-03-01T13:35:54;15.30;37.40
3942;DHT22;1985;48.592;8.850;2023-03-01T13:41:07;13.90;40.50
3942;DHT22;1985;48.592;8.850;2023-03-01T13:43:37;13.50;41.10
3942;DHT22;1985;48.592;8.850;2023-03-01T13:46:17;13.30;41.80
3942;DHT22;1985;48.592;8.850;2023-03-01T13:48:45;13.40;41.90
3942;DHT22;1985;48.592;8.850;2023-03-01T13:51:13;13.20;42.60
3942;DHT22;1985;48.592;8.850;2023-03-01T13:53:46;13.40;42.70
3942;DHT22;1985;48.592;8.850;2023-03-01T13:56:17;14.30;41.70
3942;DHT22;1985;48.592;8.850;2023-03-01T13:58:59;15.30;40.90
3942;DHT22;1985;48.592;8.850;2023-03-01T14:01:28;15.00;40.50
3942;DHT22;1985;48.592;8.850;2023-03-01T14:03:54;14.50;40.50
3942;DHT22;1985;48.592;8.850;2023-03-01T14:06:26;13.90;41.00
3942;DHT22;1985;48.592;8.850;2023-03-01T14:09:31;13.30;42.00
3942;DHT22;1985;48.592;8.850;2023-03-01T14:20:09;12.20;45.40
3942;DHT22;1985;48.592;8.850;2023-03-01T14:22:36;12.10;45.10
3942;DHT22;1985;48.592;8.850;2023-03-01T14:25:35;11.60;45.80
3942;DHT22;1985;48.592;8.850;2023-03-01T14:30:45;11.90;46.00
3942;DHT22;1985;48.592;8.850;2023-03-01T14:38:36;11.60;46.10
3942;DHT22;1985;48.592;8.850;2023-03-01T14:41:16;11.50;46.60
3942;DHT22;1985;48.592;8.850;2023-03-01T14:43:45;11.70;46.80
3942;DHT22;1985;48.592;8.850;2023-03-01T14:49:01;11.60;47.50
3942;DHT22;1985;48.592;8.850;2023-03-01T14:51:27;11.10;48.00
3942;DHT22;1985;48.592;8.850;2023-03-01T14:53:53;11.20;48.30
3942;DHT22;1985;48.592;8.850;2023-03-01T14:56:19;11.10;48.20
3942;DHT22;1985;48.592;8.850;2023-03-01T14:58:45;11.00;48.80
3942;DHT22;1985;48.592;8.850;2023-03-01T15:01:15;10.60;49.00
3942;DHT22;1985;48.592;8.850;2023-03-01T15:03:51;10.90;49.20
3942;DHT22;1985;48.592;8.850;2023-03-01T15:06:19;11.20;49.20
3942;DHT22;1985;48.592;8.850;2023-03-01T15:08:48;11.10;48.70
3942;DHT22;1985;48.592;8.850;2023-03-01T15:11:32;11.10;49.00
3942;DHT22;1985;48.592;8.850;2023-03-01T15:13:59;10.50;49.60
3942;DHT22;1985;48.592;8.850;2023-03-01T15:16:31;10.30;50.10
3942;DHT22;1985;48.592;8.850;2023-03-01T15:19:05;10.20;50.50
3942;DHT22;1985;48.592;8.850;2023-03-01T15:21:38;10.00;51.00
3942;DHT22;1985;48.592;8.850;2023-03-01T15:27:05;9.10;53.20
3942;DHT22;1985;48.592;8.850;2023-03-01T15:29:33;8.70;54.30
3942;DHT22;1985;48.592;8.850;2023-03-01T15:32:33;8.70;54.30
3942;DHT22;1985;48.592;8.850;2023-03-01T15:35:01;8.40;54.90
3942;DHT22;1985;48.592;8.850;2023-03-01T15:42:50;7.90;56.30
3942;DHT22;1985;48.592;8.850;2023-03-01T15:50:28;7.70;57.60
3942;DHT22;1985;48.592;8.850;2023-03-01T15:52:55;7.70;57.80
3942;DHT22;1985;48.592;8.850;2023-03-01T15:55:29;7.50;58.30
3942;DHT22;1985;48.592;8.850;2023-03-01T15:58:14;7.50;58.90
3942;DHT22;1985;48.592;8.850;2023-03-01T16:00:41;7.40;59.30
3942;DHT22;1985;48.592;8.850;2023-03-01T16:03:09;7.30;59.60
3942;DHT22;1985;48.592;8.850;2023-03-01T16:05:38;7.30;59.80
3942;DHT22;1985;48.592;8.850;2023-03-01T16:08:05;7.30;59.90
3942;DHT22;1985;48.592;8.850;2023-03-01T16:10:32;7.20;60.80
3942;DHT22;1985;48.592;8.850;2023-03-01T16:12:58;7.10;60.40
3942;DHT22;1985;48.592;8.850;2023-03-01T16:15:32;7.00;61.30
3942;DHT22;1985;48.592;8.850;2023-03-01T16:17:59;7.00;61.10
3942;DHT22;1985;48.592;8.850;2023-03-01T16:20:26;6.90;61.10
3942;DHT22;1985;48.592;8.850;2023-03-01T16:22:52;6.70;61.80
3942;DHT22;1985;48.592;8.850;2023-03-01T16:25:19;6.80;61.80
3942;DHT22;1985;48.592;8.850;2023-03-01T16:27:47;6.70;62.10
3942;DHT22;1985;48.592;8.850;2023-03-01T16:30:19;6.40;62.70
3942;DHT22;1985;48.592;8.850;2023-03-01T16:32:46;6.40;62.90
3942;DHT22;1985;48.592;8.850;2023-03-01T16:35:15;6.40;63.00
3942;DHT22;1985;48.592;8.850;2023-03-01T16:37:41;6.40;62.90
3942;DHT22;1985;48.592;8.850;2023-03-01T16:40:16;6.30;63.60
3942;DHT22;1985;48.592;8.850;2023-03-01T16:42:42;6.20;63.60
3942;DHT22;1985;48.592;8.850;2023-03-01T16:45:09;6.20;63.90
3942;DHT22;1985;48.592;8.850;2023-03-01T16:47:34;6.10;64.40
3942;DHT22;1985;48.592;8.850;2023-03-01T16:50:00;6.10;64.50
3942;DHT22;1985;48.592;8.850;2023-03-01T16:52:26;6.00;64.60
3942;DHT22;1985;48.592;8.850;2023-03-01T16:54:52;6.00;64.90
3942;DHT22;1985;48.592;8.850;2023-03-01T16:57:17;6.00;64.90
3942;DHT22;1985;48.592;8.850;2023-03-01T16:59:43;5.90;65.10
3942;DHT22;1985;48.592;8.850;2023-03-01T17:02:12;5.90;65.00
3942;DHT22;1985;48.592;8.850;2023-03-01T17:04:40;5.80;65.20
3942;DHT22;1985;48.592;8.850;2023-03-01T17:07:05;5.80;65.70
3942;DHT22;1985;48.592;8.850;2023-03-01T17:09:35;5.70;65.80
3942;DHT22;1985;48.592;8.850;2023-03-01T17:12:01;5.60;66.30
3942;DHT22;1985;48.592;8.850;2023-03-01T17:14:27;5.60;66.30
3942;DHT22;1985;48.592;8.850;2023-03-01T17:16:52;5.70;66.30
3942;DHT22;1985;48.592;8.850;2023-03-01T17:19:18;5.60;66.50
3942;DHT22;1985;48.592;8.850;2023-03-01T17:21:44;5.60;66.50
3942;DHT22;1985;48.592;8.850;2023-03-01T17:24:10;5.50;66.80
3942;DHT22;1985;48.592;8.850;2023-03-01T17:26:37;5.50;66.90
3942;DHT22;1985;48.592;8.850;2023-03-01T17:29:03;5.50;67.20
3942;DHT22;1985;48.592;8.850;2023-03-01T17:31:30;5.50;67.20
3942;DHT22;1985;48.592;8.850;2023-03-01T17:33:56;5.40;67.60
3942;DHT22;1985;48.592;8.850;2023-03-01T17:36:22;5.40;67.70
3942;DHT22;1985;48.592;8.850;2023-03-01T17:38:48;5.30;67.80
3942;DHT22;1985;48.592;8.850;2023-03-01T17:41:14;5.30;68.10
3942;DHT22;1985;48.592;8.850;2023-03-01T17:43:45;5.40;68.20
3942;DHT22;1985;48.592;8.850;2023-03-01T17:46:11;5.40;67.80
3942;DHT22;1985;48.592;8.850;2023-03-01T17:48:37;5.40;67.90
3942;DHT22;1985;48.592;8.850;2023-03-01T17:51:07;5.30;67.70
3942;DHT22;1985;48.592;8.850;2023-03-01T17:53:33;5.20;68.30
3942;DHT22;1985;48.592;8.850;2023-03-01T17:56:04;5.10;69.00
3942;DHT22;1985;48.592;8.850;2023-03-01T17:58:30;4.90;69.30
3942;DHT22;1985;48.592;8.850;2023-03-01T18:01:05;4.90;70.10
3942;DHT22;1985;48.592;8.850;2023-03-01T18:03:31;4.90;69.90
3942;DHT22;1985;48.592;8.850;2023-03-01T18:05:56;4.90;70.20
3942;DHT22;1985;48.592;8.850;2023-03-01T18:08:22;4.90;69.90
3942;DHT22;1985;48.592;8.850;2023-03-01T18:10:48;4.80;70.10
3942;DHT22;1985;48.592;8.850;2023-03-01T18:13:13;4.90;70.50
3942;DHT22;1985;48.592;8.850;2023-03-01T18:15:39;4.90;70.30
3942;DHT22;1985;48.592;8.850;2023-03-01T18:18:05;4.80;70.50
3942;DHT22;1985;48.592;8.850;2023-03-01T18:20:30;4.80;71.00
3942;DHT22;1985;48.592;8.850;2023-03-01T18:22:57;4.90;70.40
3942;DHT22;1985;48.592;8.850;2023-03-01T18:25:23;4.80;71.00
3942;DHT22;1985;48.592;8.850;2023-03-01T18:27:49;4.90;70.80
3942;DHT22;1985;48.592;8.850;2023-03-01T18:30:15;4.90;70.70
3942;DHT22;1985;48.592;8.850;2023-03-01T18:32:40;4.80;71.00
3942;DHT22;1985;48.592;8.850;2023-03-01T18:35:07;4.80;71.10
3942;DHT22;1985;48.592;8.850;2023-03-01T18:37:32;4.80;71.30